| time (UTC) | temp F | wind direction | speed knots | gust knots | rain 1hr in | rain 24hr in | rain mn in | humidity % | barometer mb |
| 20260510213018 | 64 | 359 | 0.0 | 0.0 | 0.02 | 0.15 | 0.15 | 95 | 1012.3 |
| 20260510211514 | 64 | 359 | 0.0 | 0.0 | 0.11 | 0.15 | 0.15 | 95 | 1012.6 |
| 20260510210011 | 64 | 359 | 0.0 | 0.0 | 0.11 | 0.14 | 0.14 | 94 | 1012.1 |
| 20260510204523 | 64 | 359 | 0.0 | 0.0 | 0.11 | 0.15 | 0.14 | 92 | 1011.9 |
| 20260510203010 | 66 | 359 | 0.0 | 0.0 | 0.09 | 0.13 | 0.12 | 90 | 1012.0 |
| 20260510201508 | 68 | 359 | 0.0 | 0.0 | 0.01 | 0.05 | 0.04 | 86 | 1011.5 |
| 20260510200008 | 70 | 72 | 0.0 | 0.0 | 0.00 | 0.04 | 0.03 | 90 | 1011.4 |
| 20260510194507 | 69 | 71 | 0.0 | 0.0 | 0.01 | 0.04 | 0.03 | 91 | 1011.6 |
| 20260510193006 | 68 | 71 | 0.0 | 0.0 | 0.03 | 0.04 | 0.03 | 90 | 1011.9 |
| 20260510191508 | 68 | 71 | 0.0 | 0.0 | 0.03 | 0.04 | 0.03 | 89 | 1011.9 |
| 20260510190010 | 69 | 72 | 0.0 | 0.0 | 0.03 | 0.04 | 0.03 | 84 | 1012.0 |
| 20260510184505 | 71 | 74 | 0.0 | 0.0 | 0.02 | 0.03 | 0.02 | 77 | 1012.3 |
| 20260510183005 | 73 | 72 | 0.0 | 0.0 | 0.00 | 0.01 | 0.00 | 72 | 1011.9 |
| 20260510181517 | 75 | 72 | 0.0 | 0.0 | 0.00 | 0.01 | 0.00 | 69 | 1012.0 |
| 20260510180004 | 79 | 72 | 0.0 | 0.0 | 0.00 | 0.01 | 0.00 | 61 | 1012.2 |
| 20260510174503 | 82 | 72 | 0.0 | 0.0 | 0.00 | 0.01 | 0.00 | 49 | 1012.0 |
| 20260510173007 | 85 | 72 | 0.0 | 0.0 | 0.00 | 0.01 | 0.00 | 48 | 1012.0 |
| 20260510171601 | 83 | 71 | 0.0 | 0.0 | 0.00 | 0.01 | 0.00 | 49 | 1012.0 |
| 20260510170104 | 83 | 72 | 0.0 | 0.0 | 0.00 | 0.01 | 0.00 | 46 | 1012.1 |
| 20260510164611 | 83 | 67 | 0.0 | 0.0 | 0.00 | 0.01 | 0.00 | 50 | 1012.1 |
| 20260510163102 | 82 | 70 | 0.0 | 0.0 | 0.00 | 0.01 | 0.00 | 52 | 1012.0 |
| 20260510161555 | 82 | 68 | 0.0 | 0.0 | 0.00 | 0.01 | 0.00 | 52 | 1012.1 |
| 20260510160055 | 80 | 66 | 0.0 | 0.0 | 0.00 | 0.01 | 0.00 | 55 | 1012.2 |
| 20260510154547 | 79 | 68 | 0.0 | 0.0 | 0.00 | 0.01 | 0.00 | 57 | 1012.2 |
| 20260510153048 | 78 | 68 | 0.0 | 0.0 | 0.00 | 0.01 | 0.00 | 59 | 1012.3 |
| 20260510151540 | 77 | 68 | 0.0 | 0.0 | 0.00 | 0.01 | 0.00 | 61 | 1012.3 |
| 20260510150036 | 75 | 68 | 0.0 | 0.0 | 0.00 | 0.01 | 0.00 | 66 | 1012.1 |
| 20260510144545 | 74 | 80 | 0.0 | 0.0 | 0.00 | 0.01 | 0.00 | 65 | 1012.2 |
| 20260510143030 | 73 | 79 | 0.0 | 0.0 | 0.00 | 0.01 | 0.00 | 68 | 1012.4 |
| 20260510141527 | 71 | 79 | 0.0 | 0.0 | 0.00 | 0.01 | 0.00 | 71 | 1012.4 |
| 20260510140026 | 69 | 79 | 0.0 | 0.0 | 0.00 | 0.01 | 0.00 | 77 | 1012.4 |
| 20260510134520 | 66 | 79 | 0.0 | 0.0 | 0.00 | 0.01 | 0.00 | 80 | 1012.3 |
| 20260510133016 | 64 | 66 | 0.0 | 0.0 | 0.00 | 0.01 | 0.00 | 83 | 1012.5 |
| 20260510131510 | 62 | 127 | 0.0 | 0.0 | 0.00 | 0.01 | 0.00 | 87 | 1012.3 |
| 20260510130006 | 59 | 127 | 0.0 | 0.0 | 0.00 | 0.01 | 0.00 | 94 | 1012.6 |
| 20260510124502 | 56 | 127 | 0.0 | 0.0 | 0.00 | 0.01 | 0.00 | 98 | 1012.6 |
| 20260510123100 | 54 | 127 | 0.0 | 0.0 | 0.00 | 0.01 | 0.00 | 98 | 1012.4 |
| 20260510121557 | 53 | 127 | 0.0 | 0.0 | 0.00 | 0.01 | 0.00 | 98 | 1012.4 |
| 20260510120054 | 52 | 359 | 0.0 | 0.0 | 0.00 | 0.01 | 0.00 | 98 | 1012.0 |
| 20260510114602 | 51 | 127 | 0.0 | 0.0 | 0.00 | 0.01 | 0.00 | 98 | 1011.8 |
| 20260510113046 | 50 | 127 | 0.0 | 0.0 | 0.00 | 0.01 | 0.00 | 98 | 1011.5 |
| 20260510111546 | 49 | 127 | 0.0 | 0.0 | 0.00 | 0.01 | 0.00 | 97 | 1011.8 |
| 20260510110044 | 48 | 359 | 0.0 | 0.0 | 0.00 | 0.01 | 0.00 | 97 | 1011.5 |
| 20260510104552 | 48 | 359 | 0.0 | 0.0 | 0.00 | 0.01 | 0.00 | 97 | 1011.3 |
| 20260510103045 | 48 | 359 | 0.0 | 0.0 | 0.00 | 0.01 | 0.00 | 97 | 1011.2 |
| 20260510101541 | 47 | 359 | 0.0 | 0.0 | 0.00 | 0.01 | 0.00 | 97 | 1010.8 |
| 20260510100051 | 47 | 359 | 0.0 | 0.0 | 0.00 | 0.01 | 0.00 | 97 | 1010.9 |
| 20260510094546 | 47 | 359 | 0.0 | 0.0 | 0.00 | 0.01 | 0.00 | 97 | 1010.7 |
| 20260510093039 | 47 | 359 | 0.0 | 0.0 | 0.00 | 0.01 | 0.00 | 97 | 1010.5 |
| 20260510091539 | 47 | 359 | 0.0 | 0.0 | 0.00 | 0.01 | 0.00 | 97 | 1010.5 |
| 20260510090041 | 47 | 359 | 0.0 | 0.0 | 0.00 | 0.01 | 0.00 | 96 | 1010.3 |
| 20260510084549 | 46 | 359 | 0.0 | 0.0 | 0.00 | 0.01 | 0.00 | 96 | 1010.9 |
| 20260510083040 | 46 | 359 | 0.0 | 0.0 | 0.00 | 0.01 | 0.00 | 95 | 1010.8 |
| 20260510081535 | 46 | 359 | 0.0 | 0.0 | 0.00 | 0.01 | 0.00 | 94 | 1010.1 |
| 20260510080040 | 46 | 359 | 0.0 | 0.0 | 0.00 | 0.01 | 0.00 | 94 | 1010.0 |
| 20260510074533 | 46 | 359 | 0.0 | 0.0 | 0.00 | 0.01 | 0.00 | 94 | 1010.1 |
| 20260510073035 | 47 | 359 | 0.0 | 0.0 | 0.00 | 0.01 | 0.00 | 94 | 1009.9 |
| 20260510071541 | 47 | 359 | 0.0 | 0.0 | 0.00 | 0.01 | 0.00 | 95 | 1009.7 |
| 20260510070031 | 47 | 359 | 0.0 | 0.0 | 0.00 | 0.01 | 0.00 | 94 | 1009.4 |
| 20260510064529 | 47 | 359 | 0.0 | 0.0 | 0.00 | 0.01 | 0.00 | 94 | 1009.3 |
| 20260510063027 | 47 | 359 | 0.0 | 0.0 | 0.00 | 0.01 | 0.00 | 94 | 1009.4 |
| 20260510061525 | 47 | 359 | 0.0 | 0.0 | 0.00 | 0.01 | 0.00 | 94 | 1009.6 |
| 20260510060025 | 48 | 359 | 0.0 | 0.0 | 0.00 | 0.01 | 0.00 | 94 | 1009.4 |
| 20260510054526 | 48 | 359 | 0.0 | 0.0 | 0.00 | 0.01 | 0.00 | 94 | 1009.7 |
| 20260510053020 | 48 | 359 | 0.0 | 0.0 | 0.00 | 0.01 | 0.00 | 94 | 1009.8 |
| 20260510051523 | 49 | 359 | 0.0 | 0.0 | 0.00 | 0.01 | 0.00 | 94 | 1009.9 |
| 20260510050017 | 49 | 359 | 0.0 | 0.0 | 0.00 | 0.01 | 0.00 | 93 | 1010.0 |
| 20260510044522 | 49 | 359 | 0.0 | 0.0 | 0.00 | 0.01 | 0.00 | 94 | 1010.1 |
| 20260510043015 | 49 | 359 | 0.0 | 0.0 | 0.00 | 0.01 | 0.00 | 93 | 1010.1 |
| 20260510041513 | 50 | 359 | 0.0 | 0.0 | 0.00 | 0.01 | 0.00 | 93 | 1010.1 |
| 20260510040011 | 50 | 359 | 0.0 | 0.0 | 0.00 | 0.01 | 0.00 | 93 | 1010.3 |
| 20260510034512 | 50 | 359 | 0.0 | 0.0 | 0.00 | 0.01 | 0.01 | 93 | 1010.1 |
| 20260510033008 | 50 | 359 | 0.0 | 0.0 | 0.00 | 0.01 | 0.01 | 93 | 1010.1 |
| 20260510031507 | 51 | 359 | 0.0 | 0.0 | 0.00 | 0.01 | 0.01 | 93 | 1010.0 |
| 20260510030006 | 51 | 359 | 0.0 | 0.0 | 0.00 | 0.01 | 0.01 | 93 | 1009.8 |
| 20260510024506 | 51 | 359 | 0.0 | 0.0 | 0.00 | 0.01 | 0.01 | 92 | 1009.6 |
| 20260510023006 | 52 | 359 | 0.0 | 0.0 | 0.00 | 0.01 | 0.01 | 92 | 1009.7 |
| 20260510021503 | 52 | 359 | 0.0 | 0.0 | 0.00 | 0.01 | 0.01 | 92 | 1009.8 |
| 20260510020002 | 53 | 359 | 0.0 | 0.0 | 0.00 | 0.01 | 0.01 | 92 | 1009.6 |
| 20260510014502 | 53 | 359 | 0.0 | 0.0 | 0.00 | 0.01 | 0.01 | 91 | 1009.4 |
| 20260510013001 | 53 | 359 | 0.0 | 0.0 | 0.00 | 0.01 | 0.01 | 91 | 1009.4 |
| 20260510011502 | 54 | 359 | 0.0 | 0.9 | 0.00 | 0.01 | 0.01 | 91 | 1009.3 |
| 20260510010113 | 54 | 359 | 0.0 | 0.0 | 0.00 | 0.01 | 0.01 | 91 | 1009.0 |
| 20260510004605 | 54 | 359 | 0.0 | 0.0 | 0.00 | 0.01 | 0.01 | 91 | 1009.0 |
| 20260510003104 | 54 | 359 | 0.0 | 0.0 | 0.00 | 0.01 | 0.01 | 90 | 1009.0 |
| 20260510001559 | 55 | 359 | 0.0 | 0.0 | 0.00 | 0.01 | 0.01 | 89 | 1009.0 |
| 20260510000123 | 56 | 359 | 0.0 | 0.0 | 0.00 | 0.01 | 0.01 | 88 | 1008.9 |
| 20260509234606 | 56 | 359 | 0.0 | 0.0 | 0.00 | 0.01 | 0.01 | 87 | 1009.0 |
| 20260509233057 | 57 | 359 | 0.0 | 0.0 | 0.00 | 0.01 | 0.01 | 87 | 1008.9 |
| 20260509231558 | 57 | 359 | 0.0 | 0.0 | 0.00 | 0.01 | 0.01 | 87 | 1009.0 |
| 20260509224556 | 58 | 359 | 0.0 | 0.0 | 0.00 | 0.01 | 0.01 | 88 | 1008.8 |
| 20260509223056 | 58 | 359 | 0.0 | 0.0 | 0.00 | 0.01 | 0.01 | 88 | 1008.9 |
| 20260509221608 | 58 | 359 | 0.0 | 0.0 | 0.00 | 0.01 | 0.01 | 88 | 1009.0 |
| 20260509220105 | 58 | 359 | 0.0 | 0.0 | 0.00 | 0.01 | 0.01 | 90 | 1008.9 |
| 20260509214554 | 57 | 359 | 0.0 | 0.0 | 0.00 | 0.01 | 0.01 | 89 | 1009.0 |